Aviation Digital Data Service (ADDS)

Output produced by METARs form (0014 UTC 20 April 2019)
found at http://www.aviationweather.gov/metar/data/
 
Forecast for: AMD
Text: TAF AMD ZGGG 192220Z 2000/2024 10003MPS 6000 BKN033 TX27/2007Z TN22/2022Z
Forecast period: 0000 UTC 20 April 2019 to 0000 UTC 21 April 2019
Forecast type: FROM: standard forecast or significant change
Winds: from the E (100 degrees) at 7 MPH (6 knots; 3.1 m/s)
Visibility: 4 miles (6 km)
Ceiling: 3300 feet AGL
Clouds: broken clouds at 3300 feet AGL
Weather: no significant weather forecast for this period
Text: TEMPO 2001/2005 32010G17MPS 1200 +TSRA SCT011 SCT030CB BKN033
Forecast period: 0100 to 0500 UTC 20 April 2019
Forecast type: TEMPORARY: The following changes expected for less than half the time period
Winds: from the NW (320 degrees) at 22 MPH (19 knots; 9.8 m/s)
gusting to 38 MPH (33 knots; 17.0 m/s)
Visibility: 0.75 miles (1.21 km)
Ceiling: 3300 feet AGL
Clouds: scattered clouds at 1100 feet AGL
scattered clouds at 3000 feet AGL
broken clouds at 3300 feet AGL
Weather: +TSRA  (heavy rain associated with thunderstorm(s))
Text: TEMPO 2005/2011 2000 TSRA SCT030CB BKN033
Forecast period: 0500 to 1100 UTC 20 April 2019
Forecast type: TEMPORARY: The following changes expected for less than half the time period
Visibility: 1.24 miles (2.00 km)
Ceiling: 3300 feet AGL
Clouds: scattered clouds at 3000 feet AGL
broken clouds at 3300 feet AGL
Weather: TSRA  (rain associated with thunderstorm(s))